createdAt,value
2023-02-22T00:00:50.300Z,41.41
2023-02-22T00:01:50.321Z,38.19
2023-02-22T00:02:50.311Z,41.37
2023-02-22T00:03:50.309Z,42.18
2023-02-22T00:04:50.255Z,42.35
2023-02-22T00:05:50.256Z,38.93
2023-02-22T00:06:50.241Z,41.37
2023-02-22T00:07:50.248Z,40.88
2023-02-22T00:08:50.205Z,40.86
2023-02-22T00:09:50.195Z,41.53
2023-02-22T00:10:50.194Z,46.04
2023-02-22T00:11:50.178Z,42.09
2023-02-22T00:12:50.230Z,41.25
2023-02-22T00:13:50.150Z,41.97
2023-02-22T00:14:50.147Z,40.68
2023-02-22T00:15:50.128Z,40.13
2023-02-22T00:16:50.125Z,37.37
2023-02-22T00:17:50.099Z,37.86
2023-02-22T00:18:50.109Z,39.55
2023-02-22T00:19:50.104Z,39.10
2023-02-22T00:20:50.072Z,37.95
2023-02-22T00:21:50.056Z,38.67
2023-02-22T00:22:50.042Z,34.91
2023-02-22T00:23:50.691Z,36.27
2023-02-22T00:24:50.015Z,41.55
2023-02-22T00:25:49.992Z,37.81
2023-02-22T00:26:49.981Z,39.94
2023-02-22T00:27:49.958Z,37.39
2023-02-22T00:28:49.943Z,38.87
2023-02-22T00:29:49.949Z,39.18
2023-02-22T00:30:49.936Z,37.97
2023-02-22T00:31:50.049Z,43.28
2023-02-22T00:32:49.919Z,41.25
2023-02-22T00:33:49.908Z,38.57
2023-02-22T00:34:49.905Z,41.84
2023-02-22T00:35:49.895Z,38.65
2023-02-22T00:36:49.885Z,42.59
2023-02-22T00:37:49.864Z,41.58
2023-02-22T00:38:49.863Z,41.24
2023-02-22T00:39:49.837Z,41.54
2023-02-22T00:40:49.831Z,41.57
2023-02-22T00:41:49.974Z,39.06
2023-02-22T00:42:49.801Z,39.61
2023-02-22T00:43:49.782Z,39.77
2023-02-22T00:44:49.765Z,40.17
2023-02-22T00:45:49.775Z,40.39
2023-02-22T00:46:49.771Z,41.51
2023-02-22T00:47:49.718Z,36.56
2023-02-22T00:48:49.699Z,38.64
2023-02-22T00:49:49.670Z,37.98
2023-02-22T00:50:49.661Z,41.53
2023-02-22T00:51:49.639Z,39.01
2023-02-22T00:52:49.620Z,38.90
2023-02-22T00:53:49.610Z,36.98
2023-02-22T00:54:49.594Z,35.26
2023-02-22T00:55:49.572Z,38.48
2023-02-22T00:56:49.581Z,39.27
2023-02-22T00:57:49.547Z,39.38
2023-02-22T00:58:49.528Z,37.94
2023-02-22T00:59:49.516Z,36.40
2023-02-22T01:00:49.553Z,37.01
2023-02-22T01:01:49.502Z,38.39
2023-02-22T01:02:49.488Z,37.14
2023-02-22T01:03:49.477Z,37.88
2023-02-22T01:04:49.460Z,33.61
2023-02-22T01:05:49.439Z,38.49
2023-02-22T01:06:49.432Z,35.51
2023-02-22T01:07:49.413Z,36.07
2023-02-22T01:08:49.413Z,35.65
2023-02-22T01:09:49.398Z,33.99
2023-02-22T01:10:49.386Z,35.86
2023-02-22T01:11:49.365Z,32.63
2023-02-22T01:12:49.352Z,33.47
2023-02-22T01:13:49.357Z,35.50
2023-02-22T01:14:49.337Z,34.14
2023-02-22T01:15:49.333Z,35.25
2023-02-22T01:16:49.321Z,32.85
2023-02-22T01:17:49.294Z,33.45
2023-02-22T01:18:49.298Z,30.65
2023-02-22T01:19:49.290Z,33.68
2023-02-22T01:20:49.260Z,32.28
2023-02-22T01:21:49.245Z,29.71
2023-02-22T01:22:49.245Z,31.68
2023-02-22T01:23:49.223Z,34.12
2023-02-22T01:24:49.227Z,31.16
2023-02-22T01:25:49.208Z,31.09
2023-02-22T01:26:49.198Z,31.34
2023-02-22T01:27:49.186Z,31.35
2023-02-22T01:28:49.173Z,31.65
2023-02-22T01:29:49.175Z,30.55
2023-02-22T01:30:49.305Z,31.26
2023-02-22T01:31:49.181Z,31.64
2023-02-22T01:32:49.158Z,30.11
2023-02-22T01:33:49.136Z,31.33
2023-02-22T01:34:49.125Z,31.21
2023-02-22T01:35:49.110Z,32.04
2023-02-22T01:36:49.084Z,32.12
2023-02-22T01:37:49.073Z,30.68
2023-02-22T01:38:49.048Z,30.44
2023-02-22T01:39:49.053Z,31.44
2023-02-22T01:40:49.036Z,32.89
2023-02-22T01:41:49.034Z,29.85
2023-02-22T01:42:49.017Z,28.94
2023-02-22T01:43:48.999Z,27.41
2023-02-22T01:44:48.984Z,28.13
2023-02-22T01:45:49.025Z,29.36
2023-02-22T01:46:48.962Z,26.70
2023-02-22T01:47:48.946Z,28.19
2023-02-22T01:48:48.944Z,25.12
2023-02-22T01:49:48.921Z,27.75
2023-02-22T01:50:48.904Z,24.88
2023-02-22T01:51:48.895Z,25.59
2023-02-22T01:52:48.885Z,25.00
2023-02-22T01:53:48.896Z,28.11
2023-02-22T01:54:48.873Z,27.66
2023-02-22T01:55:48.864Z,29.01
2023-02-22T01:56:48.846Z,26.94
2023-02-22T01:57:48.851Z,28.83
2023-02-22T01:58:48.805Z,25.63
2023-02-22T01:59:48.799Z,26.80
2023-02-22T02:00:48.786Z,25.39
2023-02-22T02:01:48.777Z,25.75
2023-02-22T02:02:48.775Z,26.35
2023-02-22T02:03:48.769Z,27.21
2023-02-22T02:04:48.765Z,28.21
2023-02-22T02:05:48.714Z,29.13
2023-02-22T02:06:48.769Z,26.50
2023-02-22T02:07:48.694Z,25.15
2023-02-22T02:08:48.695Z,25.00
2023-02-22T02:09:48.684Z,28.35
2023-02-22T02:10:48.661Z,26.74
2023-02-22T02:11:48.661Z,29.84
2023-02-22T02:12:48.655Z,27.01
2023-02-22T02:13:48.645Z,32.79
2023-02-22T02:14:48.628Z,28.07
2023-02-22T02:15:48.615Z,29.38
2023-02-22T02:16:48.635Z,27.70
2023-02-22T02:17:48.595Z,27.04
2023-02-22T02:18:48.578Z,26.39
2023-02-22T02:19:48.582Z,29.14
2023-02-22T02:20:48.556Z,27.73
2023-02-22T02:21:48.549Z,28.28
2023-02-22T02:22:48.546Z,25.00
2023-02-22T02:23:48.542Z,29.27
2023-02-22T02:24:48.530Z,33.15
2023-02-22T02:25:48.507Z,32.37
2023-02-22T02:26:48.496Z,28.63
2023-02-22T02:27:48.491Z,28.76
2023-02-22T02:28:48.475Z,28.22
2023-02-22T02:29:48.489Z,28.56
2023-02-22T02:30:48.482Z,32.62
2023-02-22T02:31:48.553Z,32.67
2023-02-22T02:32:48.449Z,31.04
2023-02-22T02:33:48.443Z,31.93
2023-02-22T02:34:48.432Z,28.74
2023-02-22T02:35:48.421Z,28.94
2023-02-22T02:36:48.438Z,28.03
2023-02-22T02:37:48.408Z,31.72
2023-02-22T02:38:48.446Z,31.43
2023-02-22T02:39:48.379Z,30.81
2023-02-22T02:40:48.356Z,30.31
2023-02-22T02:41:48.360Z,30.49
2023-02-22T02:42:48.335Z,28.17
2023-02-22T02:43:48.325Z,29.04
2023-02-22T02:44:48.299Z,27.43
2023-02-22T02:45:48.286Z,30.08
2023-02-22T02:46:48.304Z,28.18
2023-02-22T02:47:48.257Z,28.38
2023-02-22T02:48:48.256Z,29.33
2023-02-22T02:49:48.251Z,29.03
2023-02-22T02:50:48.240Z,28.91
2023-02-22T02:51:48.224Z,32.49
2023-02-22T02:52:48.260Z,27.71
2023-02-22T02:53:48.181Z,31.64
2023-02-22T02:54:48.168Z,28.82
2023-02-22T02:55:48.162Z,27.85
2023-02-22T02:56:48.141Z,27.05
2023-02-22T02:57:48.140Z,32.07
2023-02-22T02:58:48.118Z,28.09
2023-02-22T02:59:48.103Z,31.97
2023-02-22T03:00:48.092Z,29.17
2023-02-22T03:01:48.148Z,33.03
2023-02-22T03:02:48.050Z,32.30
2023-02-22T03:03:48.056Z,30.04
2023-02-22T03:04:48.021Z,30.21
2023-02-22T03:05:48.014Z,30.18
2023-02-22T03:06:47.992Z,31.15
2023-02-22T03:07:47.981Z,30.28
2023-02-22T03:08:47.982Z,31.30
2023-02-22T03:09:47.956Z,30.86
2023-02-22T03:10:47.943Z,29.15
2023-02-22T03:11:47.922Z,30.25
2023-02-22T03:12:47.907Z,26.92
2023-02-22T03:13:47.904Z,26.87
2023-02-22T03:14:47.889Z,25.48
2023-02-22T03:15:47.877Z,26.49
2023-02-22T03:16:47.864Z,26.74
2023-02-22T03:17:47.844Z,30.69
2023-02-22T03:18:47.837Z,30.22
2023-02-22T03:19:47.824Z,26.32
2023-02-22T03:20:47.801Z,30.25
2023-02-22T03:21:47.780Z,32.23
2023-02-22T03:22:47.768Z,28.77
2023-02-22T03:23:47.765Z,30.58
2023-02-22T03:24:47.733Z,28.59
2023-02-22T03:25:47.738Z,31.25
2023-02-22T03:26:47.719Z,29.38
2023-02-22T03:27:47.710Z,31.43
2023-02-22T03:28:47.697Z,32.96
2023-02-22T03:29:47.686Z,33.04
2023-02-22T03:30:47.702Z,32.59
2023-02-22T03:31:47.729Z,31.65
2023-02-22T03:32:47.648Z,34.28
2023-02-22T03:33:47.625Z,30.84
2023-02-22T03:34:47.613Z,32.30
2023-02-22T03:35:47.599Z,28.57
2023-02-22T03:36:47.585Z,28.35
2023-02-22T03:37:47.572Z,29.74
2023-02-22T03:38:47.536Z,30.02
2023-02-22T03:39:47.521Z,28.32
2023-02-22T03:40:47.499Z,32.70
2023-02-22T03:41:47.490Z,31.72
2023-02-22T03:42:47.467Z,30.02
2023-02-22T03:43:47.460Z,27.55
2023-02-22T03:44:47.440Z,27.44
2023-02-22T03:45:47.428Z,28.04
2023-02-22T03:46:47.403Z,30.09
2023-02-22T03:47:47.400Z,30.49
2023-02-22T03:48:47.369Z,25.71
2023-02-22T03:49:47.357Z,31.59
2023-02-22T03:50:47.335Z,25.63
2023-02-22T03:51:47.326Z,28.89
2023-02-22T03:52:47.312Z,27.72
2023-02-22T03:53:47.309Z,28.73
2023-02-22T03:54:47.280Z,30.04
2023-02-22T03:55:47.272Z,30.55
2023-02-22T03:56:47.356Z,26.35
2023-02-22T03:57:47.247Z,26.05
2023-02-22T03:58:47.247Z,29.54
2023-02-22T03:59:47.230Z,27.97
2023-02-22T04:00:47.209Z,28.29
2023-02-22T04:01:47.197Z,29.29
2023-02-22T04:02:47.214Z,31.16
2023-02-22T04:03:47.193Z,29.64
2023-02-22T04:04:47.304Z,29.22
2023-02-22T04:05:47.170Z,28.94
2023-02-22T04:06:47.151Z,30.20
2023-02-22T04:07:47.141Z,28.92
2023-02-22T04:08:47.123Z,29.16
2023-02-22T04:09:47.133Z,30.41
2023-02-22T04:10:47.103Z,28.76
2023-02-22T04:11:47.092Z,29.03
2023-02-22T04:12:47.079Z,27.06
2023-02-22T04:13:47.073Z,32.83
2023-02-22T04:14:47.078Z,33.04
2023-02-22T04:15:47.075Z,30.11
2023-02-22T04:16:47.033Z,29.45
2023-02-22T04:17:47.014Z,28.98
2023-02-22T04:18:47.002Z,31.42
2023-02-22T04:19:47.009Z,29.37
2023-02-22T04:20:46.987Z,32.07
2023-02-22T04:21:46.970Z,31.61
2023-02-22T04:22:46.955Z,30.38
2023-02-22T04:23:46.957Z,30.29
2023-02-22T04:24:46.945Z,30.36
2023-02-22T04:25:46.944Z,30.99
2023-02-22T04:26:46.915Z,33.36
2023-02-22T04:27:46.901Z,30.03
2023-02-22T04:28:46.881Z,30.45
2023-02-22T04:29:46.867Z,33.71
2023-02-22T04:30:46.854Z,31.14
2023-02-22T04:31:46.912Z,32.97
2023-02-22T04:32:46.834Z,30.22
2023-02-22T04:33:46.820Z,29.73
2023-02-22T04:34:46.806Z,29.05
2023-02-22T04:35:46.811Z,28.68
2023-02-22T04:36:46.788Z,32.58
2023-02-22T04:37:46.772Z,32.58
2023-02-22T04:38:46.780Z,32.76
2023-02-22T04:39:46.782Z,32.76
2023-02-22T04:40:46.745Z,32.12
2023-02-22T04:41:46.735Z,27.23
2023-02-22T04:42:46.734Z,29.06
2023-02-22T04:43:46.710Z,31.11
2023-02-22T04:44:46.704Z,30.29
2023-02-22T04:45:46.702Z,32.15
2023-02-22T04:46:46.873Z,30.80
2023-02-22T04:47:46.677Z,31.19
2023-02-22T04:48:46.659Z,29.99
2023-02-22T04:49:46.646Z,28.38
2023-02-22T04:50:46.638Z,28.40
2023-02-22T04:51:46.633Z,28.14
2023-02-22T04:52:46.614Z,28.95
2023-02-22T04:53:46.614Z,29.80
2023-02-22T04:54:46.590Z,30.50
2023-02-22T04:55:46.586Z,33.28
2023-02-22T04:56:46.567Z,30.08
2023-02-22T04:57:46.580Z,29.85
2023-02-22T04:58:46.530Z,30.22
2023-02-22T04:59:46.520Z,32.98
2023-02-22T05:00:46.502Z,29.20
2023-02-22T05:01:46.496Z,28.39
2023-02-22T05:02:46.503Z,35.02
2023-02-22T05:03:46.469Z,33.36
2023-02-22T05:04:46.501Z,31.17
2023-02-22T05:05:46.459Z,31.44
2023-02-22T05:06:46.425Z,30.23
2023-02-22T05:07:46.442Z,30.37
2023-02-22T05:08:46.411Z,29.14
2023-02-22T05:09:46.400Z,31.94
2023-02-22T05:10:46.382Z,29.47
2023-02-22T05:11:46.372Z,28.96
2023-02-22T05:12:46.353Z,30.86
2023-02-22T05:13:46.338Z,31.40
2023-02-22T05:14:46.337Z,32.76
2023-02-22T05:15:46.347Z,29.10
2023-02-22T05:16:46.307Z,31.89
2023-02-22T05:17:46.289Z,30.48
2023-02-22T05:18:46.276Z,29.61
2023-02-22T05:19:46.268Z,30.44
2023-02-22T05:20:46.252Z,29.02
2023-02-22T05:21:46.248Z,30.51
2023-02-22T05:22:46.243Z,33.27
2023-02-22T05:23:46.221Z,36.57
2023-02-22T05:24:46.206Z,32.20
2023-02-22T05:25:46.199Z,30.87
2023-02-22T05:26:46.211Z,32.67
2023-02-22T05:27:46.188Z,29.24
2023-02-22T05:28:46.171Z,32.37
2023-02-22T05:29:46.167Z,34.16
2023-02-22T05:30:46.314Z,32.27
2023-02-22T05:31:46.252Z,33.02
2023-02-22T05:32:47.096Z,31.88
2023-02-22T05:33:46.114Z,33.16
2023-02-22T05:34:46.117Z,32.67
2023-02-22T05:35:46.073Z,29.58
2023-02-22T05:36:46.060Z,33.86
2023-02-22T05:37:46.128Z,37.14
2023-02-22T05:38:46.030Z,30.33
2023-02-22T05:39:46.020Z,34.46
2023-02-22T05:40:46.012Z,33.66
2023-02-22T05:41:45.999Z,32.25
2023-02-22T05:42:48.143Z,34.35
2023-02-22T05:43:45.968Z,37.13
2023-02-22T05:44:45.937Z,32.83
2023-02-22T05:45:45.934Z,34.54
2023-02-22T05:46:46.074Z,32.88
2023-02-22T05:47:45.915Z,32.86
2023-02-22T05:48:45.896Z,35.38
2023-02-22T05:49:45.883Z,33.30
2023-02-22T05:50:45.877Z,35.05
2023-02-22T05:51:45.856Z,35.70
2023-02-22T05:52:45.847Z,53.86
2023-02-22T05:53:45.826Z,48.51
2023-02-22T05:54:45.826Z,39.50
2023-02-22T05:55:46.628Z,35.53
2023-02-22T05:56:45.797Z,39.89
2023-02-22T05:57:45.782Z,40.64
2023-02-22T05:58:45.776Z,42.36
2023-02-22T05:59:45.757Z,37.65
2023-02-22T06:00:45.742Z,40.07
2023-02-22T06:01:45.764Z,39.99
2023-02-22T06:02:45.723Z,38.66
2023-02-22T06:03:45.735Z,35.83
2023-02-22T06:04:45.694Z,39.04
2023-02-22T06:05:45.722Z,35.82
2023-02-22T06:06:45.660Z,39.01
2023-02-22T06:07:45.651Z,38.74
2023-02-22T06:08:45.655Z,38.91
2023-02-22T06:09:45.630Z,39.49
2023-02-22T06:10:45.664Z,41.05
2023-02-22T06:11:45.619Z,40.65
2023-02-22T06:12:45.611Z,39.91
2023-02-22T06:13:45.589Z,37.72
2023-02-22T06:14:45.591Z,40.73
2023-02-22T06:15:45.573Z,42.76
2023-02-22T06:16:45.562Z,40.56
2023-02-22T06:17:45.552Z,37.00
2023-02-22T06:18:45.539Z,37.56
2023-02-22T06:19:45.542Z,40.90
2023-02-22T06:20:45.526Z,40.92
2023-02-22T06:21:45.512Z,38.93
2023-02-22T06:22:45.514Z,44.17
2023-02-22T06:23:45.491Z,43.35
2023-02-22T06:24:45.460Z,43.72
2023-02-22T06:25:45.457Z,39.35
2023-02-22T06:26:45.431Z,44.78
2023-02-22T06:27:45.449Z,44.48
2023-02-22T06:28:45.412Z,42.27
2023-02-22T06:29:46.398Z,42.66
2023-02-22T06:30:45.447Z,47.83
2023-02-22T06:31:45.431Z,43.31
2023-02-22T06:32:45.371Z,42.33
2023-02-22T06:33:45.363Z,72.83
2023-02-22T06:34:45.349Z,93.15
2023-02-22T06:35:45.359Z,97.75
2023-02-22T06:36:45.327Z,100.19
2023-02-22T06:37:45.316Z,107.69
2023-02-22T06:38:45.328Z,112.97
2023-02-22T06:39:45.289Z,112.99
2023-02-22T06:40:45.283Z,110.46
2023-02-22T06:41:45.257Z,115.47
2023-02-22T06:42:45.258Z,122.18
2023-02-22T06:43:45.242Z,138.39
2023-02-22T06:44:45.226Z,139.25
2023-02-22T06:45:45.240Z,150.54
2023-02-22T06:46:45.198Z,160.96
2023-02-22T06:47:45.279Z,174.06
2023-02-22T06:48:45.173Z,178.88
2023-02-22T06:49:45.127Z,183.26
2023-02-22T06:50:45.128Z,186.55
2023-02-22T06:51:45.115Z,190.38
2023-02-22T06:52:45.080Z,201.38
2023-02-22T06:53:45.063Z,214.65
2023-02-22T06:54:45.035Z,221.30
2023-02-22T06:55:45.019Z,227.59
2023-02-22T06:56:45.005Z,234.92
2023-02-22T06:57:44.993Z,233.82
2023-02-22T06:58:44.975Z,236.47
2023-02-22T06:59:44.957Z,239.26
2023-02-22T07:00:44.949Z,246.87
2023-02-22T07:01:44.887Z,246.99
2023-02-22T07:02:44.878Z,247.50
2023-02-22T07:03:44.896Z,251.41
2023-02-22T07:04:44.824Z,259.66
2023-02-22T07:05:44.814Z,266.98
2023-02-22T07:06:44.779Z,244.49
2023-02-22T07:08:44.771Z,250.00
2023-02-22T11:00:41.580Z,27.45
2023-02-22T11:01:41.656Z,27.46
2023-02-22T11:02:41.619Z,27.43
2023-02-22T11:03:41.625Z,28.76
2023-02-22T11:04:41.656Z,33.33
2023-02-22T11:05:41.671Z,24.81
2023-02-22T11:06:41.689Z,34.97
2023-02-22T11:07:41.703Z,40.52
2023-02-22T11:08:41.704Z,29.69
2023-02-22T11:09:41.710Z,24.25
2023-02-22T11:10:41.731Z,35.18
2023-02-22T11:11:41.741Z,24.10
2023-02-22T11:12:41.762Z,28.97
2023-02-22T11:13:41.767Z,37.89
2023-02-22T11:14:41.777Z,39.39
2023-02-22T11:15:41.785Z,30.19
2023-02-22T11:16:41.831Z,33.24
2023-02-22T11:17:41.847Z,30.39
2023-02-22T11:18:41.847Z,26.24
2023-02-22T11:19:41.854Z,33.31
2023-02-22T11:20:41.971Z,34.62
2023-02-22T11:21:41.894Z,50.12
2023-02-22T11:22:41.937Z,26.38
2023-02-22T11:23:44.631Z,18.77
2023-02-22T11:24:49.087Z,26.64
2023-02-22T11:25:43.016Z,26.72
2023-02-22T11:29:42.114Z,35.18
2023-02-22T11:30:42.244Z,46.13
2023-02-22T11:31:42.212Z,51.94
2023-02-22T11:32:42.163Z,49.69
2023-02-22T11:33:42.181Z,50.90
2023-02-22T11:34:42.192Z,62.01
2023-02-22T11:35:42.227Z,65.45
2023-02-22T11:36:42.221Z,102.14
2023-02-22T11:37:42.218Z,128.81
2023-02-22T11:38:42.244Z,152.63
2023-02-22T11:39:42.270Z,152.92
2023-02-22T11:40:42.256Z,155.11
2023-02-22T11:41:42.259Z,160.79
2023-02-22T11:42:42.253Z,168.49
2023-02-22T11:43:42.268Z,179.72
2023-02-22T11:44:42.285Z,187.37
2023-02-22T11:45:52.914Z,193.26
2023-02-22T11:46:43.310Z,193.48
2023-02-22T11:47:42.266Z,194.86
2023-02-22T11:48:42.263Z,198.19
2023-02-22T11:49:42.256Z,203.78
2023-02-22T11:50:42.260Z,211.68
2023-02-22T11:51:42.239Z,215.83
2023-02-22T11:52:42.239Z,217.86
2023-02-22T11:53:42.260Z,219.85
2023-02-22T11:54:42.258Z,220.86
2023-02-22T11:55:43.559Z,222.77
2023-02-22T11:56:42.572Z,225.21
2023-02-22T11:57:42.176Z,225.31
2023-02-22T11:58:42.186Z,225.69
2023-02-22T11:59:42.165Z,225.41
2023-02-22T12:00:42.173Z,226.18
2023-02-22T12:01:42.252Z,227.53
2023-02-22T12:02:51.845Z,230.24
2023-02-22T12:03:43.175Z,225.57
2023-02-22T12:04:42.162Z,226.77
2023-02-22T12:05:42.066Z,229.05
2023-02-22T12:06:42.038Z,232.24
2023-02-22T12:07:42.026Z,237.71
2023-02-22T12:08:42.028Z,240.09
2023-02-22T12:09:42.031Z,242.16
2023-02-22T12:10:42.016Z,242.58
2023-02-22T12:11:41.969Z,241.70
2023-02-22T12:12:41.954Z,241.76
2023-02-22T12:13:41.934Z,241.80
2023-02-22T12:14:41.923Z,241.00
2023-02-22T12:15:41.912Z,241.74
2023-02-22T12:16:41.887Z,241.82
2023-02-22T12:17:48.174Z,240.37
2023-02-22T12:18:42.887Z,240.43
2023-02-22T12:19:41.863Z,240.41
2023-02-22T12:20:41.833Z,240.40
2023-02-22T12:21:41.834Z,240.41
2023-02-22T12:22:41.812Z,240.39
2023-02-22T12:23:41.784Z,240.31
2023-02-22T12:24:41.789Z,240.77
2023-02-22T12:25:41.800Z,236.97
2023-02-22T12:26:41.749Z,237.03
2023-02-22T12:27:41.752Z,239.12
2023-02-22T12:28:41.751Z,239.17
2023-02-22T12:29:41.729Z,239.17
2023-02-22T12:30:41.770Z,237.49
2023-02-22T12:31:41.743Z,239.50
2023-02-22T12:32:41.779Z,239.22
2023-02-22T12:33:41.712Z,238.96
2023-02-22T12:34:41.741Z,240.72
2023-02-22T12:35:41.597Z,239.31
2023-02-22T12:36:41.596Z,237.54
2023-02-22T12:37:41.567Z,237.31
2023-02-22T12:38:41.551Z,236.20
2023-02-22T12:39:52.661Z,234.55
2023-02-22T12:40:42.520Z,233.79
2023-02-22T12:41:41.500Z,233.77
2023-02-22T12:42:41.477Z,237.10
2023-02-22T12:43:41.452Z,233.06
2023-02-22T12:44:41.428Z,231.36
2023-02-22T12:45:41.416Z,230.33
2023-02-22T12:46:41.423Z,231.98
2023-02-22T12:47:41.400Z,234.92
2023-02-22T12:48:41.341Z,234.61
2023-02-22T12:49:41.332Z,234.40
2023-02-22T12:50:41.288Z,230.41
2023-02-22T12:51:41.278Z,231.09
2023-02-22T12:52:41.251Z,231.25
2023-02-22T12:53:41.243Z,230.77
2023-02-22T12:54:41.211Z,230.04
2023-02-22T12:55:41.190Z,229.47
2023-02-22T12:56:41.201Z,228.77
2023-02-22T12:57:41.153Z,228.53
2023-02-22T12:58:41.187Z,227.78
2023-02-22T12:59:41.112Z,225.93
2023-02-22T13:00:41.076Z,225.36
2023-02-22T13:01:41.083Z,224.52
2023-02-22T13:02:41.031Z,224.85
2023-02-22T13:03:41.025Z,222.91
2023-02-22T13:04:41.018Z,222.28
2023-02-22T13:05:40.988Z,222.03
2023-02-22T13:06:40.944Z,225.72
2023-02-22T13:07:40.936Z,224.06
2023-02-22T13:08:40.918Z,221.41
2023-02-22T13:09:40.901Z,219.60
2023-02-22T13:10:40.870Z,219.34
2023-02-22T13:11:40.871Z,219.12
2023-02-22T13:12:40.835Z,219.73
2023-02-22T13:13:40.824Z,217.92
2023-02-22T13:14:41.046Z,217.56
2023-02-22T13:15:40.805Z,215.70
2023-02-22T13:16:40.755Z,216.02
2023-02-22T13:17:40.744Z,213.96
2023-02-22T13:18:40.868Z,213.67
2023-02-22T13:19:40.714Z,212.10
2023-02-22T13:20:40.713Z,214.74
2023-02-22T13:21:40.680Z,213.37
2023-02-22T13:22:40.666Z,211.86
2023-02-22T13:23:40.672Z,210.68
2023-02-22T13:24:41.686Z,211.26
2023-02-22T13:25:40.645Z,211.27
2023-02-22T13:26:40.593Z,211.29
2023-02-22T13:27:40.572Z,210.84
2023-02-22T13:28:40.550Z,211.25
2023-02-22T13:29:40.564Z,212.08
2023-02-22T13:30:40.617Z,211.79
2023-02-22T13:31:41.193Z,212.48
2023-02-22T13:32:40.458Z,211.97
2023-02-22T13:33:40.447Z,210.24
2023-02-22T13:34:40.439Z,210.41
2023-02-22T13:35:40.395Z,208.60
2023-02-22T13:36:40.377Z,209.20
2023-02-22T13:37:40.351Z,209.57
2023-02-22T13:38:40.319Z,208.71
2023-02-22T13:39:40.301Z,208.28
2023-02-22T13:40:40.326Z,208.75
2023-02-22T13:41:40.306Z,207.26
2023-02-22T13:42:41.370Z,206.99
2023-02-22T13:43:40.223Z,208.50
2023-02-22T13:44:40.172Z,207.71
2023-02-22T13:45:40.153Z,207.79
2023-02-22T13:46:40.281Z,207.48
2023-02-22T13:47:40.089Z,206.77
2023-02-22T13:48:40.080Z,205.26
2023-02-22T13:49:40.060Z,206.72
2023-02-22T13:50:40.033Z,207.91
2023-02-22T13:51:39.998Z,209.38
2023-02-22T13:52:39.962Z,207.64
2023-02-22T13:53:39.944Z,207.94
2023-02-22T13:54:39.925Z,208.97
2023-02-22T13:55:39.903Z,207.37
2023-02-22T13:56:39.882Z,209.09
2023-02-22T13:57:39.865Z,207.53
2023-02-22T13:58:39.829Z,205.58
2023-02-22T13:59:39.796Z,207.21
2023-02-22T14:00:39.803Z,208.01
2023-02-22T14:01:39.802Z,208.07
2023-02-22T14:02:39.743Z,207.65
2023-02-22T14:03:39.720Z,206.31
2023-02-22T14:04:39.684Z,206.00
2023-02-22T14:05:39.784Z,207.93
2023-02-22T14:06:39.631Z,207.95
2023-02-22T14:07:39.615Z,207.97
2023-02-22T14:08:41.799Z,205.96
2023-02-22T14:09:39.559Z,206.07
2023-02-22T14:10:39.528Z,206.16
2023-02-22T14:11:39.508Z,205.99
2023-02-22T14:12:39.481Z,204.52
2023-02-22T14:13:39.447Z,204.43
2023-02-22T14:14:39.414Z,206.56
2023-02-22T14:15:39.417Z,205.54
2023-02-22T14:16:39.462Z,206.14
2023-02-22T14:17:39.355Z,206.86
2023-02-22T14:18:39.351Z,206.82
2023-02-22T14:19:39.333Z,207.00
2023-02-22T14:20:40.680Z,206.40
2023-02-22T14:21:39.283Z,207.41
2023-02-22T14:22:39.315Z,208.35
2023-02-22T14:23:39.289Z,209.92
2023-02-22T14:24:39.260Z,208.65
2023-02-22T14:25:39.230Z,207.76
2023-02-22T14:26:39.214Z,206.64
2023-02-22T14:27:39.203Z,206.68
2023-02-22T14:28:39.180Z,206.65
2023-02-22T14:29:39.165Z,208.75
2023-02-22T14:30:39.182Z,207.59
2023-02-22T14:31:39.198Z,208.21
2023-02-22T14:32:39.293Z,209.13
2023-02-22T14:33:41.256Z,209.28
2023-02-22T14:34:39.082Z,209.30
2023-02-22T14:35:49.423Z,208.53
2023-02-22T14:36:40.046Z,209.33
2023-02-22T14:37:39.076Z,208.59
2023-02-22T14:38:39.003Z,209.37
2023-02-22T14:39:38.981Z,209.34
2023-02-22T14:40:38.970Z,209.44
2023-02-22T14:41:38.970Z,207.56
2023-02-22T14:42:38.976Z,207.35
2023-02-22T14:43:38.911Z,209.50
2023-02-22T14:44:38.908Z,207.82
2023-02-22T14:45:38.902Z,207.21
2023-02-22T14:48:26.863Z,25.00
2023-02-22T14:58:26.618Z,32.04
2023-02-22T14:59:26.597Z,33.50
2023-02-22T15:00:26.561Z,31.26
2023-02-22T15:01:33.918Z,27.96
2023-02-22T15:02:27.563Z,28.21
2023-02-22T15:03:28.840Z,28.34
2023-02-22T15:04:26.751Z,28.40
2023-02-22T15:05:26.679Z,28.49
2023-02-22T15:06:26.634Z,30.00
2023-02-22T15:07:26.595Z,31.36
2023-02-22T15:08:26.569Z,32.53
2023-02-22T15:09:29.634Z,35.25
2023-02-22T15:10:26.533Z,28.37
2023-02-22T15:11:26.504Z,29.23
2023-02-22T15:12:26.491Z,32.98
2023-02-22T15:13:26.444Z,35.25
2023-02-22T15:14:26.998Z,42.18
2023-02-22T15:15:26.420Z,46.08
2023-02-22T15:16:26.432Z,44.20
2023-02-22T15:17:26.373Z,44.78
2023-02-22T15:18:26.350Z,43.46
2023-02-22T15:19:26.349Z,43.64
2023-02-22T15:20:26.296Z,49.65
2023-02-22T15:21:26.267Z,60.63
2023-02-22T15:22:26.254Z,48.07
2023-02-22T15:23:26.200Z,48.70
2023-02-22T15:24:26.162Z,50.63
2023-02-22T15:25:26.147Z,52.46
2023-02-22T15:26:26.117Z,48.85
2023-02-22T15:27:26.102Z,48.05
2023-02-22T15:28:26.054Z,50.41
2023-02-22T15:29:26.034Z,50.62
2023-02-22T15:30:26.021Z,54.43
2023-02-22T15:31:25.974Z,56.41
2023-02-22T15:32:25.925Z,51.08
2023-02-22T15:33:25.918Z,54.32
2023-02-22T15:34:25.892Z,50.40
2023-02-22T15:35:25.839Z,51.50
2023-02-22T15:36:25.836Z,53.49
2023-02-22T15:37:25.896Z,53.92
2023-02-22T15:38:25.768Z,57.08
2023-02-22T15:39:25.743Z,57.81
2023-02-22T15:40:25.727Z,58.09
2023-02-22T15:41:25.695Z,58.89
2023-02-22T15:42:25.668Z,58.15
2023-02-22T15:43:25.733Z,58.23
2023-02-22T15:44:25.739Z,60.75
2023-02-22T16:14:24.848Z,46.04
2023-02-22T16:43:24.024Z,26.08
2023-02-22T16:44:24.008Z,39.82
2023-02-22T16:45:23.958Z,32.27
2023-02-22T16:46:23.977Z,36.01
2023-02-22T16:47:23.889Z,36.17
2023-02-22T16:48:23.861Z,28.86
2023-02-22T16:49:23.826Z,24.19
2023-02-22T16:50:23.807Z,29.49
2023-02-22T16:51:23.769Z,38.19
2023-02-22T16:52:23.732Z,29.57
2023-02-22T16:53:23.697Z,30.52
2023-02-22T16:54:23.676Z,30.58
2023-02-22T16:55:23.630Z,33.74
2023-02-22T16:56:23.611Z,37.65
2023-02-22T16:57:23.580Z,27.32
2023-02-22T16:58:23.564Z,25.10
2023-02-22T16:59:23.528Z,25.89
2023-02-22T17:00:24.100Z,36.39
2023-02-22T17:01:23.537Z,31.87
2023-02-22T17:02:23.448Z,34.18
2023-02-22T17:03:23.416Z,32.56
2023-02-22T17:04:23.405Z,32.90
2023-02-22T17:05:23.465Z,26.42
2023-02-22T21:17:17.431Z,34.44
2023-02-22T21:18:17.407Z,34.44
2023-02-22T21:19:17.373Z,28.69
2023-02-22T21:20:17.367Z,30.65
2023-02-22T21:21:17.645Z,27.44
2023-02-22T21:22:17.322Z,27.99
2023-02-22T21:23:17.312Z,25.00
2023-02-22T21:24:17.291Z,26.34
2023-02-22T21:25:17.267Z,31.49
2023-02-22T21:26:17.263Z,35.99
2023-02-22T21:27:17.224Z,30.19
2023-02-22T21:28:17.206Z,25.00
2023-02-22T21:29:17.187Z,30.75
2023-02-22T21:30:17.173Z,35.58
2023-02-22T21:31:17.733Z,31.66
2023-02-22T21:32:17.243Z,36.10
2023-02-22T21:33:17.102Z,30.99
2023-02-22T21:34:17.065Z,36.56
2023-02-22T21:35:17.047Z,29.15
2023-02-22T21:36:17.043Z,35.88
2023-02-22T21:37:17.023Z,29.53
2023-02-22T21:38:16.994Z,32.83
2023-02-22T21:39:16.976Z,30.58
2023-02-22T21:40:16.954Z,30.03
2023-02-22T21:41:17.343Z,30.22
2023-02-22T21:42:16.910Z,29.32
2023-02-22T21:43:16.879Z,28.93
2023-02-22T21:44:16.876Z,27.45
2023-02-22T21:45:16.836Z,31.82
2023-02-22T21:46:16.835Z,33.78
2023-02-22T21:47:16.786Z,30.46
2023-02-22T21:48:16.771Z,26.25
2023-02-22T21:49:16.753Z,30.93
2023-02-22T21:50:16.736Z,28.25
2023-02-22T21:51:17.084Z,26.17
2023-02-22T21:52:16.691Z,26.55
2023-02-22T21:53:16.669Z,26.91
2023-02-22T21:54:16.647Z,26.36
2023-02-22T21:55:16.621Z,23.71
2023-02-22T21:56:16.608Z,26.51
2023-02-22T21:57:16.590Z,26.55
2023-02-22T21:58:16.582Z,25.19
2023-02-22T21:59:16.560Z,26.69